ENHE

Heidrun Airport

Norway
METAR ENHE 241150Z 24014KT 9999 FEW022 BKN070 06/01 Q1032 W///S5
Observed Flight Rules
Feb-24 @ 11:50 UTC (34 minutes ago) Visual Flight Rules
Wind Visibility Clouds
240° at 14 knots 10,000+ meters
  • Few at 2,200' AGL
  • Broken at 7,000' AGL
Temperatures Readings
Current 6°C / 43°F
Dewpoint 1°C / 34°F
Humidity 71%
Altimeter 30.47" Hg
Pressure 1032 hPa
Elevation 1
METAR ENHE 241150Z 24014KT 9999 FEW022 BKN070 06/01 Q1032 W///S5
Observed Flight Rules
Feb-24 @ 11:50 UTC
(34 minutes ago)
VFR
Wind Visibility
240° at 14 knots 10,000+ meters
Clouds
  • Few at 2,200' AGL
  • Broken at 7,000' AGL
Temperature Dewpoint
6°C / 43°F 1°C / 34°F
Humidity Altimeter Pressure
71% 30.47" Hg 1032 hPa